sensor_id;sensor_type;location;lat;lon;timestamp;pressure;altitude;pressure_sealevel;temperature;humidity
3598;BME280;1813;52.016;8.714;2023-08-30T00:02:23;-16261.94;;;-139.71;73.75
3598;BME280;1813;52.016;8.714;2023-08-30T00:04:58;-16261.94;;;-139.71;74.68
3598;BME280;1813;52.016;8.714;2023-08-30T00:07:33;-16261.94;;;-139.71;74.89
3598;BME280;1813;52.016;8.714;2023-08-30T00:10:07;-16261.94;;;-139.71;73.61
3598;BME280;1813;52.016;8.714;2023-08-30T00:12:44;-16261.94;;;-139.71;73.48
3598;BME280;1813;52.016;8.714;2023-08-30T00:15:17;-16261.94;;;-139.71;73.82
3598;BME280;1813;52.016;8.714;2023-08-30T00:17:51;-16261.94;;;-139.71;74.15
3598;BME280;1813;52.016;8.714;2023-08-30T00:20:25;-16261.94;;;-139.71;74.55
3598;BME280;1813;52.016;8.714;2023-08-30T00:22:59;-16261.94;;;-139.71;74.94
3598;BME280;1813;52.016;8.714;2023-08-30T00:25:34;-16261.94;;;-139.71;75.18
3598;BME280;1813;52.016;8.714;2023-08-30T00:28:10;-16261.94;;;-139.71;75.75
3598;BME280;1813;52.016;8.714;2023-08-30T00:30:44;-16261.94;;;-139.71;76.13
3598;BME280;1813;52.016;8.714;2023-08-30T00:33:18;-16261.94;;;-139.71;76.72
3598;BME280;1813;52.016;8.714;2023-08-30T00:35:58;-16261.94;;;-139.71;76.71
3598;BME280;1813;52.016;8.714;2023-08-30T00:38:33;-16261.94;;;-139.71;76.49
3598;BME280;1813;52.016;8.714;2023-08-30T00:41:07;-16261.94;;;-139.71;76.37
3598;BME280;1813;52.016;8.714;2023-08-30T00:43:43;-16261.94;;;-139.71;76.06
3598;BME280;1813;52.016;8.714;2023-08-30T00:46:17;-16261.94;;;-139.71;75.96
3598;BME280;1813;52.016;8.714;2023-08-30T00:48:51;-16261.94;;;-139.71;75.68
3598;BME280;1813;52.016;8.714;2023-08-30T00:51:25;-16261.94;;;-139.71;76.06
3598;BME280;1813;52.016;8.714;2023-08-30T00:54:00;-16261.94;;;-139.71;75.83
3598;BME280;1813;52.016;8.714;2023-08-30T00:56:34;-16261.94;;;-139.71;76.10
3598;BME280;1813;52.016;8.714;2023-08-30T00:59:11;-16261.94;;;-139.71;75.94
3598;BME280;1813;52.016;8.714;2023-08-30T01:01:45;-16261.94;;;-139.71;76.25
3598;BME280;1813;52.016;8.714;2023-08-30T01:04:19;-16261.94;;;-139.71;76.35
3598;BME280;1813;52.016;8.714;2023-08-30T01:06:54;-16261.94;;;-139.71;76.46
3598;BME280;1813;52.016;8.714;2023-08-30T01:09:28;-16261.94;;;-139.71;76.31
3598;BME280;1813;52.016;8.714;2023-08-30T01:12:09;-16261.94;;;-139.71;76.65
3598;BME280;1813;52.016;8.714;2023-08-30T01:14:52;-16261.94;;;-139.71;76.41
3598;BME280;1813;52.016;8.714;2023-08-30T01:17:29;-16261.94;;;-139.71;76.87
3598;BME280;1813;52.016;8.714;2023-08-30T01:20:06;-16261.94;;;-139.71;76.69
3598;BME280;1813;52.016;8.714;2023-08-30T01:22:50;-16261.94;;;-139.71;76.58
3598;BME280;1813;52.016;8.714;2023-08-30T01:25:53;-16261.94;;;-139.71;76.64
3598;BME280;1813;52.016;8.714;2023-08-30T01:28:33;-16261.94;;;-139.71;76.85
3598;BME280;1813;52.016;8.714;2023-08-30T01:31:08;-16261.94;;;-139.71;77.14
3598;BME280;1813;52.016;8.714;2023-08-30T01:33:44;-16261.94;;;-139.71;77.54
3598;BME280;1813;52.016;8.714;2023-08-30T01:36:19;-16261.94;;;-139.71;77.10
3598;BME280;1813;52.016;8.714;2023-08-30T01:38:53;-16261.94;;;-139.71;76.88
3598;BME280;1813;52.016;8.714;2023-08-30T01:41:29;-16261.94;;;-139.71;77.07
3598;BME280;1813;52.016;8.714;2023-08-30T01:44:06;-16261.94;;;-139.71;77.61
3598;BME280;1813;52.016;8.714;2023-08-30T01:46:41;-16261.94;;;-139.71;78.18
3598;BME280;1813;52.016;8.714;2023-08-30T01:49:16;-16261.94;;;-139.71;78.74
3598;BME280;1813;52.016;8.714;2023-08-30T01:51:51;-16261.94;;;-139.71;79.13
3598;BME280;1813;52.016;8.714;2023-08-30T01:54:25;-16261.94;;;-139.71;79.53
3598;BME280;1813;52.016;8.714;2023-08-30T01:57:00;-16261.94;;;-139.71;80.02
3598;BME280;1813;52.016;8.714;2023-08-30T01:59:37;-16261.94;;;-139.71;79.99
3598;BME280;1813;52.016;8.714;2023-08-30T02:02:10;-16261.94;;;-139.71;80.08
3598;BME280;1813;52.016;8.714;2023-08-30T02:04:44;-16261.94;;;-139.71;79.86
3598;BME280;1813;52.016;8.714;2023-08-30T02:07:22;-16261.94;;;-139.71;79.56
3598;BME280;1813;52.016;8.714;2023-08-30T02:09:59;-16261.94;;;-139.71;79.45
3598;BME280;1813;52.016;8.714;2023-08-30T02:12:37;-16261.94;;;-139.71;79.00
3598;BME280;1813;52.016;8.714;2023-08-30T02:15:17;-16261.94;;;-139.71;79.02
3598;BME280;1813;52.016;8.714;2023-08-30T02:17:52;-16261.94;;;-139.71;78.91
3598;BME280;1813;52.016;8.714;2023-08-30T02:20:27;-16261.94;;;-139.71;79.20
3598;BME280;1813;52.016;8.714;2023-08-30T02:23:01;-16261.94;;;-139.71;79.25
3598;BME280;1813;52.016;8.714;2023-08-30T02:25:35;-16261.94;;;-139.71;79.60
3598;BME280;1813;52.016;8.714;2023-08-30T02:28:09;-16261.94;;;-139.71;79.50
3598;BME280;1813;52.016;8.714;2023-08-30T02:30:47;-16261.94;;;-139.71;79.55
3598;BME280;1813;52.016;8.714;2023-08-30T02:33:21;-16261.94;;;-139.71;79.65
3598;BME280;1813;52.016;8.714;2023-08-30T02:35:55;-16261.94;;;-139.71;79.66
3598;BME280;1813;52.016;8.714;2023-08-30T02:38:29;-16261.94;;;-139.71;79.46
3598;BME280;1813;52.016;8.714;2023-08-30T02:41:02;-16261.94;;;-139.71;79.41
3598;BME280;1813;52.016;8.714;2023-08-30T02:43:36;-16261.94;;;-139.71;79.63
3598;BME280;1813;52.016;8.714;2023-08-30T02:46:13;-16261.94;;;-139.71;79.77
3598;BME280;1813;52.016;8.714;2023-08-30T02:48:46;-16261.94;;;-139.71;79.80
3598;BME280;1813;52.016;8.714;2023-08-30T02:51:20;-16261.94;;;-139.71;79.53
3598;BME280;1813;52.016;8.714;2023-08-30T02:53:54;-16261.94;;;-139.71;79.42
3598;BME280;1813;52.016;8.714;2023-08-30T02:56:28;-16261.94;;;-139.71;79.73
3598;BME280;1813;52.016;8.714;2023-08-30T02:59:02;-16261.94;;;-139.71;79.66
3598;BME280;1813;52.016;8.714;2023-08-30T03:01:39;-16261.94;;;-139.71;79.74
3598;BME280;1813;52.016;8.714;2023-08-30T03:04:15;-16261.94;;;-139.71;79.50
3598;BME280;1813;52.016;8.714;2023-08-30T03:06:48;-16261.94;;;-139.71;78.88
3598;BME280;1813;52.016;8.714;2023-08-30T03:09:22;-16261.94;;;-139.71;79.04
3598;BME280;1813;52.016;8.714;2023-08-30T03:11:56;-16261.94;;;-139.71;78.74
3598;BME280;1813;52.016;8.714;2023-08-30T03:14:30;-16261.94;;;-139.71;78.47
3598;BME280;1813;52.016;8.714;2023-08-30T03:17:06;-16261.94;;;-139.71;78.40
3598;BME280;1813;52.016;8.714;2023-08-30T03:19:42;-16261.94;;;-139.71;78.18
3598;BME280;1813;52.016;8.714;2023-08-30T03:22:16;-16261.94;;;-139.71;78.15
3598;BME280;1813;52.016;8.714;2023-08-30T03:24:50;-16261.94;;;-139.71;77.86
3598;BME280;1813;52.016;8.714;2023-08-30T03:27:24;-16261.94;;;-139.71;77.71
3598;BME280;1813;52.016;8.714;2023-08-30T03:29:58;-16261.94;;;-139.71;78.03
3598;BME280;1813;52.016;8.714;2023-08-30T03:32:38;-16261.94;;;-139.71;78.03
3598;BME280;1813;52.016;8.714;2023-08-30T03:35:12;-16261.94;;;-139.71;78.28
3598;BME280;1813;52.016;8.714;2023-08-30T03:37:47;-16261.94;;;-139.71;78.19
3598;BME280;1813;52.016;8.714;2023-08-30T03:40:21;-16261.94;;;-139.71;78.30
3598;BME280;1813;52.016;8.714;2023-08-30T03:42:56;-16261.94;;;-139.71;77.92
3598;BME280;1813;52.016;8.714;2023-08-30T03:45:34;-16261.94;;;-139.71;77.72
3598;BME280;1813;52.016;8.714;2023-08-30T03:48:11;-16261.94;;;-139.71;77.88
3598;BME280;1813;52.016;8.714;2023-08-30T03:50:44;-16261.94;;;-139.71;78.06
3598;BME280;1813;52.016;8.714;2023-08-30T03:53:18;-16261.94;;;-139.71;78.14
3598;BME280;1813;52.016;8.714;2023-08-30T03:55:52;-16261.94;;;-139.71;78.57
3598;BME280;1813;52.016;8.714;2023-08-30T03:58:28;-16261.94;;;-139.71;78.56
3598;BME280;1813;52.016;8.714;2023-08-30T04:01:01;-16261.94;;;-139.71;79.18
3598;BME280;1813;52.016;8.714;2023-08-30T04:03:40;-16261.94;;;-139.71;79.11
3598;BME280;1813;52.016;8.714;2023-08-30T04:06:14;-16261.94;;;-139.71;79.33
3598;BME280;1813;52.016;8.714;2023-08-30T04:08:48;-16261.94;;;-139.71;79.25
3598;BME280;1813;52.016;8.714;2023-08-30T04:11:21;-16261.94;;;-139.71;78.51
3598;BME280;1813;52.016;8.714;2023-08-30T04:13:55;-16261.94;;;-139.71;78.20
3598;BME280;1813;52.016;8.714;2023-08-30T04:16:29;-16261.94;;;-139.71;78.43
3598;BME280;1813;52.016;8.714;2023-08-30T04:19:06;-16261.94;;;-139.71;78.75
3598;BME280;1813;52.016;8.714;2023-08-30T04:21:39;-16261.94;;;-139.71;78.94
3598;BME280;1813;52.016;8.714;2023-08-30T04:24:14;-16261.94;;;-139.71;79.24
3598;BME280;1813;52.016;8.714;2023-08-30T04:26:47;-16261.94;;;-139.71;79.42
3598;BME280;1813;52.016;8.714;2023-08-30T04:29:24;-16261.94;;;-139.71;79.39
3598;BME280;1813;52.016;8.714;2023-08-30T04:31:58;-16261.94;;;-139.71;79.65
3598;BME280;1813;52.016;8.714;2023-08-30T04:34:34;-16261.94;;;-139.71;79.37
3598;BME280;1813;52.016;8.714;2023-08-30T04:37:08;-16261.94;;;-139.71;79.37
3598;BME280;1813;52.016;8.714;2023-08-30T04:39:42;-16261.94;;;-139.71;79.56
3598;BME280;1813;52.016;8.714;2023-08-30T04:42:16;-16261.94;;;-139.71;79.92
3598;BME280;1813;52.016;8.714;2023-08-30T04:44:50;-16261.94;;;-139.71;80.02
3598;BME280;1813;52.016;8.714;2023-08-30T04:47:26;-16261.94;;;-139.71;79.87
3598;BME280;1813;52.016;8.714;2023-08-30T04:50:04;-16261.94;;;-139.71;79.68
3598;BME280;1813;52.016;8.714;2023-08-30T04:52:40;-16261.94;;;-139.71;79.50
3598;BME280;1813;52.016;8.714;2023-08-30T04:55:16;-16261.94;;;-139.71;79.46
3598;BME280;1813;52.016;8.714;2023-08-30T04:57:50;-16261.94;;;-139.71;79.35
3598;BME280;1813;52.016;8.714;2023-08-30T05:00:25;-16261.94;;;-139.71;79.45
3598;BME280;1813;52.016;8.714;2023-08-30T05:02:59;-16261.94;;;-139.71;79.25
3598;BME280;1813;52.016;8.714;2023-08-30T05:05:36;-16261.94;;;-139.71;79.13
3598;BME280;1813;52.016;8.714;2023-08-30T05:08:12;-16261.94;;;-139.71;79.00
3598;BME280;1813;52.016;8.714;2023-08-30T05:10:46;-16261.94;;;-139.71;79.27
3598;BME280;1813;52.016;8.714;2023-08-30T05:13:23;-16261.94;;;-139.71;79.45
3598;BME280;1813;52.016;8.714;2023-08-30T05:15:57;-16261.94;;;-139.71;79.83
3598;BME280;1813;52.016;8.714;2023-08-30T05:18:31;-16261.94;;;-139.71;79.91
3598;BME280;1813;52.016;8.714;2023-08-30T05:21:09;-16261.94;;;-139.71;79.72
3598;BME280;1813;52.016;8.714;2023-08-30T05:23:43;-16261.94;;;-139.71;79.65
3598;BME280;1813;52.016;8.714;2023-08-30T05:26:18;-16261.94;;;-139.71;79.87
3598;BME280;1813;52.016;8.714;2023-08-30T05:28:51;-16261.94;;;-139.71;80.25
3598;BME280;1813;52.016;8.714;2023-08-30T05:31:25;-16261.94;;;-139.71;80.76
3598;BME280;1813;52.016;8.714;2023-08-30T05:34:06;-16261.94;;;-139.71;81.05
3598;BME280;1813;52.016;8.714;2023-08-30T05:37:21;-16261.94;;;-139.71;81.05
3598;BME280;1813;52.016;8.714;2023-08-30T05:40:01;-16261.94;;;-139.71;81.30
3598;BME280;1813;52.016;8.714;2023-08-30T05:42:35;-16261.94;;;-139.71;81.54
3598;BME280;1813;52.016;8.714;2023-08-30T05:45:09;-16261.94;;;-139.71;81.77
3598;BME280;1813;52.016;8.714;2023-08-30T05:47:43;-16261.94;;;-139.71;81.61
3598;BME280;1813;52.016;8.714;2023-08-30T05:50:17;-16261.94;;;-139.71;81.85
3598;BME280;1813;52.016;8.714;2023-08-30T05:52:54;-16261.94;;;-139.71;81.84
3598;BME280;1813;52.016;8.714;2023-08-30T05:55:27;-16261.94;;;-139.71;82.03
3598;BME280;1813;52.016;8.714;2023-08-30T05:58:01;-16261.94;;;-139.71;81.78
3598;BME280;1813;52.016;8.714;2023-08-30T06:00:35;-16261.94;;;-139.71;81.94
3598;BME280;1813;52.016;8.714;2023-08-30T06:03:09;-16261.94;;;-139.71;82.29
3598;BME280;1813;52.016;8.714;2023-08-30T06:05:43;-16261.94;;;-139.71;82.44
3598;BME280;1813;52.016;8.714;2023-08-30T06:08:22;-16261.94;;;-139.71;82.66
3598;BME280;1813;52.016;8.714;2023-08-30T06:10:55;-16261.94;;;-139.71;82.63
3598;BME280;1813;52.016;8.714;2023-08-30T06:13:29;-16261.94;;;-139.71;82.33
3598;BME280;1813;52.016;8.714;2023-08-30T06:16:03;-16261.94;;;-139.71;82.57
3598;BME280;1813;52.016;8.714;2023-08-30T06:18:37;-16261.94;;;-139.71;82.43
3598;BME280;1813;52.016;8.714;2023-08-30T06:21:12;-16261.94;;;-139.71;82.37
3598;BME280;1813;52.016;8.714;2023-08-30T06:23:48;-16261.94;;;-139.71;82.59
3598;BME280;1813;52.016;8.714;2023-08-30T06:26:22;-16261.94;;;-139.71;82.37
3598;BME280;1813;52.016;8.714;2023-08-30T06:28:56;-16261.94;;;-139.71;82.79
3598;BME280;1813;52.016;8.714;2023-08-30T06:31:30;-16261.94;;;-139.71;82.98
3598;BME280;1813;52.016;8.714;2023-08-30T06:34:04;-16261.94;;;-139.71;83.26
3598;BME280;1813;52.016;8.714;2023-08-30T06:36:38;-16261.94;;;-139.71;83.22
3598;BME280;1813;52.016;8.714;2023-08-30T06:39:14;-16261.94;;;-139.71;83.07
3598;BME280;1813;52.016;8.714;2023-08-30T06:41:48;-16261.94;;;-139.71;83.56
3598;BME280;1813;52.016;8.714;2023-08-30T06:44:24;-16261.94;;;-139.71;83.87
3598;BME280;1813;52.016;8.714;2023-08-30T06:46:59;-16261.94;;;-139.71;83.92
3598;BME280;1813;52.016;8.714;2023-08-30T06:49:33;-16261.94;;;-139.71;82.94
3598;BME280;1813;52.016;8.714;2023-08-30T06:52:07;-16261.94;;;-139.71;82.26
3598;BME280;1813;52.016;8.714;2023-08-30T06:54:43;-16261.94;;;-139.71;81.85
3598;BME280;1813;52.016;8.714;2023-08-30T06:57:17;-16261.94;;;-139.71;80.67
3598;BME280;1813;52.016;8.714;2023-08-30T06:59:52;-16261.94;;;-139.71;80.18
3598;BME280;1813;52.016;8.714;2023-08-30T07:02:28;-16261.94;;;-139.71;79.66
3598;BME280;1813;52.016;8.714;2023-08-30T07:05:01;-16261.94;;;-139.71;79.66
3598;BME280;1813;52.016;8.714;2023-08-30T07:07:36;-16261.94;;;-139.71;79.19
3598;BME280;1813;52.016;8.714;2023-08-30T07:10:12;-16261.94;;;-139.71;78.88
3598;BME280;1813;52.016;8.714;2023-08-30T07:12:46;-16261.94;;;-139.71;79.12
3598;BME280;1813;52.016;8.714;2023-08-30T07:15:20;-16261.94;;;-139.71;79.14
3598;BME280;1813;52.016;8.714;2023-08-30T07:17:54;-16261.94;;;-139.71;78.43
3598;BME280;1813;52.016;8.714;2023-08-30T07:20:28;-16261.94;;;-139.71;78.01
3598;BME280;1813;52.016;8.714;2023-08-30T07:23:04;-16261.94;;;-139.71;77.09
3598;BME280;1813;52.016;8.714;2023-08-30T07:25:41;-16261.94;;;-139.71;76.95
3598;BME280;1813;52.016;8.714;2023-08-30T07:28:14;-16261.94;;;-139.71;76.08
3598;BME280;1813;52.016;8.714;2023-08-30T07:30:48;-16261.94;;;-139.71;75.53
3598;BME280;1813;52.016;8.714;2023-08-30T07:33:22;-16261.94;;;-139.71;75.33
3598;BME280;1813;52.016;8.714;2023-08-30T07:35:56;-16261.94;;;-139.71;74.13
3598;BME280;1813;52.016;8.714;2023-08-30T07:38:30;-16261.94;;;-139.71;74.12
3598;BME280;1813;52.016;8.714;2023-08-30T07:41:06;-16261.94;;;-139.71;72.89
3598;BME280;1813;52.016;8.714;2023-08-30T07:43:40;-16261.94;;;-139.71;72.15
3598;BME280;1813;52.016;8.714;2023-08-30T07:46:14;-16261.94;;;-139.71;72.06
3598;BME280;1813;52.016;8.714;2023-08-30T07:48:48;-16261.94;;;-139.71;71.73
3598;BME280;1813;52.016;8.714;2023-08-30T07:51:22;-16261.94;;;-139.71;71.05
3598;BME280;1813;52.016;8.714;2023-08-30T07:53:56;-16261.94;;;-139.71;70.15
3598;BME280;1813;52.016;8.714;2023-08-30T07:56:32;-16261.94;;;-139.71;70.22
3598;BME280;1813;52.016;8.714;2023-08-30T07:59:06;-16261.94;;;-139.71;68.46
3598;BME280;1813;52.016;8.714;2023-08-30T08:01:40;-16261.94;;;-139.71;66.72
3598;BME280;1813;52.016;8.714;2023-08-30T08:04:14;-16261.94;;;-139.71;66.24
3598;BME280;1813;52.016;8.714;2023-08-30T08:06:48;-16261.94;;;-139.71;65.55
3598;BME280;1813;52.016;8.714;2023-08-30T08:09:22;-16261.94;;;-139.71;65.88
3598;BME280;1813;52.016;8.714;2023-08-30T08:11:59;-16261.94;;;-139.71;65.33
3598;BME280;1813;52.016;8.714;2023-08-30T08:14:32;-16261.94;;;-139.71;65.39
3598;BME280;1813;52.016;8.714;2023-08-30T08:17:06;-16261.94;;;-139.71;64.70
3598;BME280;1813;52.016;8.714;2023-08-30T08:19:40;-16261.94;;;-139.71;64.11
3598;BME280;1813;52.016;8.714;2023-08-30T08:22:14;-16261.94;;;-139.71;62.83
3598;BME280;1813;52.016;8.714;2023-08-30T08:24:49;-16261.94;;;-139.71;64.34
3598;BME280;1813;52.016;8.714;2023-08-30T08:27:27;-16261.94;;;-139.71;64.89
3598;BME280;1813;52.016;8.714;2023-08-30T08:30:01;-16261.94;;;-139.71;64.11
3598;BME280;1813;52.016;8.714;2023-08-30T08:32:35;-16261.94;;;-139.71;63.88
3598;BME280;1813;52.016;8.714;2023-08-30T08:35:09;-16261.94;;;-139.71;62.69
3598;BME280;1813;52.016;8.714;2023-08-30T08:37:43;-16261.94;;;-139.71;61.09
3598;BME280;1813;52.016;8.714;2023-08-30T08:40:17;-16261.94;;;-139.71;61.37
3598;BME280;1813;52.016;8.714;2023-08-30T08:42:54;-16261.94;;;-139.71;60.43
3598;BME280;1813;52.016;8.714;2023-08-30T08:45:29;-16261.94;;;-139.71;60.08
3598;BME280;1813;52.016;8.714;2023-08-30T08:48:04;-16261.94;;;-139.71;59.93
3598;BME280;1813;52.016;8.714;2023-08-30T08:50:39;-16261.94;;;-139.71;58.67
3598;BME280;1813;52.016;8.714;2023-08-30T08:53:13;-16261.94;;;-139.71;57.82
3598;BME280;1813;52.016;8.714;2023-08-30T08:55:47;-16261.94;;;-139.71;56.93
3598;BME280;1813;52.016;8.714;2023-08-30T08:58:24;-16261.94;;;-139.71;56.50
3598;BME280;1813;52.016;8.714;2023-08-30T09:00:59;-16261.94;;;-139.71;56.33
3598;BME280;1813;52.016;8.714;2023-08-30T09:03:33;-16261.94;;;-139.71;56.96
3598;BME280;1813;52.016;8.714;2023-08-30T09:06:08;-16261.94;;;-139.71;55.96
3598;BME280;1813;52.016;8.714;2023-08-30T09:08:42;-16261.94;;;-139.71;55.58
3598;BME280;1813;52.016;8.714;2023-08-30T09:11:15;-16261.94;;;-139.71;55.12
3598;BME280;1813;52.016;8.714;2023-08-30T09:13:52;-16261.94;;;-139.71;54.13
3598;BME280;1813;52.016;8.714;2023-08-30T09:16:26;-16261.94;;;-139.71;54.80
3598;BME280;1813;52.016;8.714;2023-08-30T09:19:00;-16261.94;;;-139.71;53.43
3598;BME280;1813;52.016;8.714;2023-08-30T09:21:34;-16261.94;;;-139.71;51.81
3598;BME280;1813;52.016;8.714;2023-08-30T09:24:08;-16261.94;;;-139.71;50.26
3598;BME280;1813;52.016;8.714;2023-08-30T09:26:47;-16261.94;;;-139.71;49.33
3598;BME280;1813;52.016;8.714;2023-08-30T09:29:24;-16261.94;;;-139.71;49.24
3598;BME280;1813;52.016;8.714;2023-08-30T09:31:57;-16261.94;;;-139.71;49.81
3598;BME280;1813;52.016;8.714;2023-08-30T09:34:32;-16261.94;;;-139.71;50.65
3598;BME280;1813;52.016;8.714;2023-08-30T09:37:05;-16261.94;;;-139.71;50.12
3598;BME280;1813;52.016;8.714;2023-08-30T09:39:48;-16261.94;;;-139.71;48.02
3598;BME280;1813;52.016;8.714;2023-08-30T09:42:22;-16261.94;;;-139.71;47.65
3598;BME280;1813;52.016;8.714;2023-08-30T09:44:59;-16261.94;;;-139.71;47.55
3598;BME280;1813;52.016;8.714;2023-08-30T09:47:33;-16261.94;;;-139.71;48.45
3598;BME280;1813;52.016;8.714;2023-08-30T09:50:08;-16261.94;;;-139.71;48.79
3598;BME280;1813;52.016;8.714;2023-08-30T09:52:42;-16261.94;;;-139.71;47.20
3598;BME280;1813;52.016;8.714;2023-08-30T09:55:18;-16261.94;;;-139.71;46.96
3598;BME280;1813;52.016;8.714;2023-08-30T09:57:53;-16261.94;;;-139.71;48.19
3598;BME280;1813;52.016;8.714;2023-08-30T10:00:30;-16261.94;;;-139.71;45.90
3598;BME280;1813;52.016;8.714;2023-08-30T10:03:04;-16261.94;;;-139.71;44.35
3598;BME280;1813;52.016;8.714;2023-08-30T10:05:39;-16261.94;;;-139.71;45.31
3598;BME280;1813;52.016;8.714;2023-08-30T10:08:14;-16261.94;;;-139.71;45.33
3598;BME280;1813;52.016;8.714;2023-08-30T10:10:49;-16261.94;;;-139.71;44.79
3598;BME280;1813;52.016;8.714;2023-08-30T10:13:24;-16261.94;;;-139.71;45.50
3598;BME280;1813;52.016;8.714;2023-08-30T10:16:01;-16261.94;;;-139.71;45.99
3598;BME280;1813;52.016;8.714;2023-08-30T10:18:38;-16261.94;;;-139.71;43.52
3598;BME280;1813;52.016;8.714;2023-08-30T10:21:13;-16261.94;;;-139.71;42.14
3598;BME280;1813;52.016;8.714;2023-08-30T10:23:49;-16261.94;;;-139.71;41.87
3598;BME280;1813;52.016;8.714;2023-08-30T10:26:27;-16261.94;;;-139.71;42.77
3598;BME280;1813;52.016;8.714;2023-08-30T10:29:03;-16261.94;;;-139.71;43.05
3598;BME280;1813;52.016;8.714;2023-08-30T10:31:40;-16261.94;;;-139.71;43.06
3598;BME280;1813;52.016;8.714;2023-08-30T10:34:15;-16261.94;;;-139.71;42.08
3598;BME280;1813;52.016;8.714;2023-08-30T10:36:56;-16261.94;;;-139.71;40.90
3598;BME280;1813;52.016;8.714;2023-08-30T10:39:35;-16261.94;;;-139.71;41.20
3598;BME280;1813;52.016;8.714;2023-08-30T10:42:21;-16261.94;;;-139.71;41.79
3598;BME280;1813;52.016;8.714;2023-08-30T10:44:57;-16261.94;;;-139.71;41.23
3598;BME280;1813;52.016;8.714;2023-08-30T10:47:37;-16261.94;;;-139.71;41.50
3598;BME280;1813;52.016;8.714;2023-08-30T10:50:12;-16261.94;;;-139.71;41.61
3598;BME280;1813;52.016;8.714;2023-08-30T10:52:54;-16261.94;;;-139.71;41.38
3598;BME280;1813;52.016;8.714;2023-08-30T10:55:28;-16261.94;;;-139.71;41.63
3598;BME280;1813;52.016;8.714;2023-08-30T10:58:03;-16261.94;;;-139.71;41.71
3598;BME280;1813;52.016;8.714;2023-08-30T11:00:40;-16261.94;;;-139.71;41.98
3598;BME280;1813;52.016;8.714;2023-08-30T11:03:17;-16261.94;;;-139.71;42.08
3598;BME280;1813;52.016;8.714;2023-08-30T11:05:52;-16261.94;;;-139.71;42.33
3598;BME280;1813;52.016;8.714;2023-08-30T11:08:28;-16261.94;;;-139.71;42.08
3598;BME280;1813;52.016;8.714;2023-08-30T11:11:07;-16261.94;;;-139.71;42.53
3598;BME280;1813;52.016;8.714;2023-08-30T11:13:41;-16261.94;;;-139.71;42.40
3598;BME280;1813;52.016;8.714;2023-08-30T11:16:21;-16261.94;;;-139.71;43.30
3598;BME280;1813;52.016;8.714;2023-08-30T11:18:57;-16261.94;;;-139.71;44.60
3598;BME280;1813;52.016;8.714;2023-08-30T11:21:33;-16261.94;;;-139.71;44.51
3598;BME280;1813;52.016;8.714;2023-08-30T11:24:08;-16261.94;;;-139.71;42.23
3598;BME280;1813;52.016;8.714;2023-08-30T11:26:43;-16261.94;;;-139.71;42.75
3598;BME280;1813;52.016;8.714;2023-08-30T11:29:17;-16261.94;;;-139.71;42.38
3598;BME280;1813;52.016;8.714;2023-08-30T11:31:50;-16261.94;;;-139.71;42.66
3598;BME280;1813;52.016;8.714;2023-08-30T11:34:27;-16261.94;;;-139.71;43.16
3598;BME280;1813;52.016;8.714;2023-08-30T11:37:01;-16261.94;;;-139.71;42.57
3598;BME280;1813;52.016;8.714;2023-08-30T11:39:35;-16261.94;;;-139.71;42.33
3598;BME280;1813;52.016;8.714;2023-08-30T11:42:10;-16261.94;;;-139.71;42.13
3598;BME280;1813;52.016;8.714;2023-08-30T11:44:44;-16261.94;;;-139.71;41.49
3598;BME280;1813;52.016;8.714;2023-08-30T11:47:19;-16261.94;;;-139.71;41.65
3598;BME280;1813;52.016;8.714;2023-08-30T11:49:56;-16261.94;;;-139.71;42.66
3598;BME280;1813;52.016;8.714;2023-08-30T11:52:30;-16261.94;;;-139.71;43.48
3598;BME280;1813;52.016;8.714;2023-08-30T11:55:06;-16261.94;;;-139.71;42.82
3598;BME280;1813;52.016;8.714;2023-08-30T11:57:43;-16261.94;;;-139.71;43.23
3598;BME280;1813;52.016;8.714;2023-08-30T12:00:21;-16261.94;;;-139.71;42.90
3598;BME280;1813;52.016;8.714;2023-08-30T12:02:55;-16261.94;;;-139.71;42.49
3598;BME280;1813;52.016;8.714;2023-08-30T12:05:31;-16261.94;;;-139.71;42.73
3598;BME280;1813;52.016;8.714;2023-08-30T12:08:17;-16261.94;;;-139.71;42.50
3598;BME280;1813;52.016;8.714;2023-08-30T12:10:52;-16261.94;;;-139.71;42.21
3598;BME280;1813;52.016;8.714;2023-08-30T12:13:28;-16261.94;;;-139.71;41.99
3598;BME280;1813;52.016;8.714;2023-08-30T12:16:02;-16261.94;;;-139.71;41.88
3598;BME280;1813;52.016;8.714;2023-08-30T12:18:36;-16261.94;;;-139.71;41.90
3598;BME280;1813;52.016;8.714;2023-08-30T12:21:13;-16261.94;;;-139.71;41.35
3598;BME280;1813;52.016;8.714;2023-08-30T12:23:48;-16261.94;;;-139.71;40.86
3598;BME280;1813;52.016;8.714;2023-08-30T12:26:31;-16261.94;;;-139.71;40.95
3598;BME280;1813;52.016;8.714;2023-08-30T12:29:08;-16261.94;;;-139.71;41.40
3598;BME280;1813;52.016;8.714;2023-08-30T12:31:41;-16261.94;;;-139.71;41.20
3598;BME280;1813;52.016;8.714;2023-08-30T12:34:15;-16261.94;;;-139.71;41.53
3598;BME280;1813;52.016;8.714;2023-08-30T12:36:52;-16261.94;;;-139.71;42.35
3598;BME280;1813;52.016;8.714;2023-08-30T12:39:26;-16261.94;;;-139.71;42.02
3598;BME280;1813;52.016;8.714;2023-08-30T12:42:00;-16261.94;;;-139.71;41.63
3598;BME280;1813;52.016;8.714;2023-08-30T12:44:33;-16261.94;;;-139.71;42.11
3598;BME280;1813;52.016;8.714;2023-08-30T12:47:07;-16261.94;;;-139.71;42.51
3598;BME280;1813;52.016;8.714;2023-08-30T12:49:44;-16261.94;;;-139.71;42.34
3598;BME280;1813;52.016;8.714;2023-08-30T12:52:21;-16261.94;;;-139.71;41.76
3598;BME280;1813;52.016;8.714;2023-08-30T12:54:54;-16261.94;;;-139.71;41.83
3598;BME280;1813;52.016;8.714;2023-08-30T12:57:28;-16261.94;;;-139.71;42.81
3598;BME280;1813;52.016;8.714;2023-08-30T13:00:02;-16261.94;;;-139.71;42.68
3598;BME280;1813;52.016;8.714;2023-08-30T13:02:36;-16261.94;;;-139.71;43.67
3598;BME280;1813;52.016;8.714;2023-08-30T13:05:10;-16261.94;;;-139.71;45.64
3598;BME280;1813;52.016;8.714;2023-08-30T13:07:47;-16261.94;;;-139.71;46.72
3598;BME280;1813;52.016;8.714;2023-08-30T13:10:21;-16261.94;;;-139.71;48.48
3598;BME280;1813;52.016;8.714;2023-08-30T13:12:55;-16261.94;;;-139.71;48.23
3598;BME280;1813;52.016;8.714;2023-08-30T13:15:29;-16261.94;;;-139.71;49.13
3598;BME280;1813;52.016;8.714;2023-08-30T13:18:03;-16261.94;;;-139.71;48.90
3598;BME280;1813;52.016;8.714;2023-08-30T13:20:40;-16261.94;;;-139.71;50.94
3598;BME280;1813;52.016;8.714;2023-08-30T13:23:16;-16261.94;;;-139.71;51.85
3598;BME280;1813;52.016;8.714;2023-08-30T13:25:51;-16261.94;;;-139.71;51.93
3598;BME280;1813;52.016;8.714;2023-08-30T13:28:25;-16261.94;;;-139.71;52.29
3598;BME280;1813;52.016;8.714;2023-08-30T13:30:58;-16261.94;;;-139.71;53.08
3598;BME280;1813;52.016;8.714;2023-08-30T13:33:32;-16261.94;;;-139.71;53.21